Time;durP1;ratioP1;P1;durP2;ratioP2;P2;SDS_P1;SDS_P2;PMS_P1;PMS_P2;Temp;Humidity;BMP_temperature;BMP_pressure;BME280_temperature;BME280_humidity;BME280_pressure;Samples;Min_cycle;Max_cycle;Signal;HPM_P1;HPM_P2
2021/04/18 00:01:13;;;;;;;6.10;5.50;;;7.40;94.40;;;;;;10499476;28;20596;-84
2021/04/18 00:06:28;;;;;;;6.07;5.60;;;7.40;94.70;;;;;;10493728;28;20209;-85
2021/04/18 00:11:30;;;;;;;5.70;5.30;;;7.40;94.80;;;;;;10488913;28;20315;-85
2021/04/18 00:16:32;;;;;;;6.47;5.87;;;7.40;95.20;;;;;;10488779;28;20208;-86
2021/04/18 00:21:35;;;;;;;6.73;6.23;;;7.50;94.60;;;;;;10500494;28;20235;-85
2021/04/18 00:26:37;;;;;;;7.40;6.70;;;7.50;94.70;;;;;;10502411;28;20204;-84
2021/04/18 00:31:39;;;;;;;5.90;5.50;;;7.60;95.20;;;;;;10476938;28;20258;-85
2021/04/18 00:36:41;;;;;;;6.13;5.73;;;7.60;94.80;;;;;;10488996;28;20204;-85
2021/04/18 00:41:50;;;;;;;5.27;4.87;;;7.70;94.10;;;;;;10493686;28;20228;-85
2021/04/18 00:46:52;;;;;;;5.90;5.40;;;7.70;93.50;;;;;;10497521;28;20200;-84
2021/04/18 00:51:54;;;;;;;5.87;5.37;;;7.70;93.00;;;;;;10493921;28;20237;-85
2021/04/18 00:56:56;;;;;;;6.00;5.50;;;7.70;93.00;;;;;;10505724;28;20206;-85
2021/04/18 01:01:58;;;;;;;5.73;5.23;;;7.60;93.50;;;;;;10495558;28;20231;-84
2021/04/18 01:07:01;;;;;;;6.03;5.60;;;7.60;93.00;;;;;;10492829;28;20204;-86
2021/04/18 01:12:03;;;;;;;6.40;5.90;;;7.60;93.20;;;;;;10490771;28;20254;-84
2021/04/18 01:17:08;;;;;;;6.37;5.60;;;7.60;92.60;;;;;;10473218;28;20205;-83
2021/04/18 01:22:13;;;;;;;6.40;5.83;;;7.50;93.30;;;;;;10479211;28;20651;-84
2021/04/18 01:27:27;;;;;;;6.60;6.10;;;7.50;93.70;;;;;;10480064;28;20208;-84
2021/04/18 01:32:37;;;;;;;6.67;6.17;;;7.50;93.80;;;;;;10505162;28;20216;-85
2021/04/18 01:37:40;;;;;;;7.10;6.60;;;7.40;93.60;;;;;;10482178;28;20299;-84
2021/04/18 01:42:43;;;;;;;6.20;5.80;;;7.40;94.10;;;;;;10484917;28;20231;-85
2021/04/18 01:47:45;;;;;;;7.13;6.53;;;7.40;94.30;;;;;;10491518;28;20294;-85
2021/04/18 01:52:49;;;;;;;7.07;6.57;;;7.40;94.00;;;;;;10491172;28;20220;-85
2021/04/18 01:57:54;;;;;;;7.57;6.97;;;7.30;94.10;;;;;;10486134;28;20269;-85
2021/04/18 02:03:09;;;;;;;7.20;6.70;;;7.40;94.50;;;;;;10504743;28;20597;-85
2021/04/18 02:08:18;;;;;;;6.97;6.50;;;7.30;94.30;;;;;;10505367;28;20205;-85
2021/04/18 02:13:20;;;;;;;7.90;7.30;;;7.40;94.10;;;;;;10496659;28;20284;-85
2021/04/18 02:18:33;;;;;;;7.80;7.20;;;7.30;94.30;;;;;;10512860;28;20287;-85
2021/04/18 02:23:36;;;;;;;7.97;7.27;;;7.20;94.50;;;;;;10502769;28;20232;-86
2021/04/18 02:28:39;;;;;;;7.43;6.83;;;7.20;94.70;;;;;;10505511;28;20208;-86
2021/04/18 02:33:46;;;;;;;8.07;7.47;;;7.20;94.60;;;;;;10500948;28;20223;-84
2021/04/18 02:38:49;;;;;;;8.30;7.70;;;7.30;95.40;;;;;;10479860;28;20201;-84
2021/04/18 02:43:51;;;;;;;8.37;7.67;;;7.30;94.70;;;;;;10485486;28;20627;-85
2021/04/18 02:48:53;;;;;;;8.30;7.60;;;7.30;94.90;;;;;;10489385;28;20232;-84
2021/04/18 02:53:59;;;;;;;7.73;7.13;;;7.40;94.60;;;;;;10495647;28;20227;-85
2021/04/18 02:59:15;;;;;;;8.17;7.53;;;7.40;94.50;;;;;;10509966;28;20201;-85
2021/04/18 03:04:19;;;;;;;8.10;7.50;;;7.50;93.90;;;;;;10487937;28;20231;-85
2021/04/18 03:09:37;;;;;;;9.40;8.60;;;7.40;94.20;;;;;;10488777;28;20208;-86
2021/04/18 03:14:39;;;;;;;9.57;8.77;;;7.40;94.30;;;;;;10483121;28;20678;-85
2021/04/18 03:19:45;;;;;;;8.50;7.90;;;7.40;94.60;;;;;;10482875;28;20274;-84
2021/04/18 03:24:48;;;;;;;8.63;7.90;;;7.40;94.70;;;;;;10482708;28;20228;-83
2021/04/18 03:36:36;;;;;;;9.00;8.30;;;7.30;94.60;;;;;;10462389;28;20685;-85
2021/04/18 03:41:48;;;;;;;9.00;8.30;;;7.30;94.80;;;;;;10495337;28;20224;-85
2021/04/18 03:46:50;;;;;;;8.73;8.13;;;7.30;94.70;;;;;;10488783;28;20192;-85
2021/04/18 03:52:05;;;;;;;9.37;8.57;;;7.30;94.80;;;;;;10496007;28;20250;-86
2021/04/18 03:57:08;;;;;;;10.73;9.70;;;7.30;95.00;;;;;;10495650;28;20287;-86
2021/04/18 04:02:11;;;;;;;9.47;8.70;;;7.20;95.20;;;;;;10485117;28;20233;-86
2021/04/18 04:07:14;;;;;;;8.10;7.50;;;7.30;95.10;;;;;;10485057;28;20200;-84
2021/04/18 04:12:18;;;;;;;9.83;8.97;;;7.30;94.70;;;;;;10488351;28;20232;-83
2021/04/18 04:17:21;;;;;;;9.80;9.00;;;7.30;94.80;;;;;;10497443;28;20196;-86
2021/04/18 04:22:38;;;;;;;8.90;8.20;;;7.30;94.40;;;;;;10485651;28;20224;-86
2021/04/18 04:27:56;;;;;;;8.50;7.83;;;7.40;94.80;;;;;;10484186;28;20295;-85
2021/04/18 04:32:57;;;;;;;9.10;8.30;;;7.40;93.50;;;;;;10474754;28;20736;-84
2021/04/18 04:37:59;;;;;;;8.83;8.13;;;7.50;93.70;;;;;;10481825;28;20766;-83
2021/04/18 04:43:02;;;;;;;8.70;8.00;;;7.50;94.00;;;;;;10482454;28;20361;-86
2021/04/18 04:48:04;;;;;;;9.40;8.60;;;7.60;94.20;;;;;;10481899;28;20196;-84
2021/04/18 04:53:06;;;;;;;9.07;8.37;;;7.60;94.00;;;;;;10482510;28;20636;-84
2021/04/18 04:58:09;;;;;;;10.73;9.80;;;7.60;93.70;;;;;;10502058;28;20216;-85
2021/04/18 05:03:11;;;;;;;10.23;9.33;;;7.70;93.30;;;;;;10481605;28;20240;-85
2021/04/18 05:08:23;;;;;;;11.13;10.23;;;7.60;93.30;;;;;;10492118;28;20215;-84
2021/04/18 05:13:25;;;;;;;11.17;10.20;;;7.70;93.70;;;;;;10473722;28;20239;-83
2021/04/18 05:18:27;;;;;;;11.03;10.03;;;7.70;93.80;;;;;;10481030;28;20208;-85
2021/04/18 05:23:29;;;;;;;10.30;9.50;;;7.70;93.80;;;;;;10501817;28;20220;-84
2021/04/18 05:28:32;;;;;;;10.47;9.67;;;7.70;93.60;;;;;;10490466;28;20212;-85
2021/04/18 05:33:34;;;;;;;11.40;10.50;;;7.60;93.80;;;;;;10506088;28;20225;-85
2021/04/18 05:38:35;;;;;;;10.77;9.77;;;7.70;94.20;;;;;;10490615;28;20200;-86
2021/04/18 05:43:38;;;;;;;10.27;9.47;;;7.80;94.20;;;;;;10491520;28;20667;-85
2021/04/18 05:48:40;;;;;;;10.27;9.47;;;7.80;93.80;;;;;;10491736;28;20219;-86
2021/04/18 05:53:41;;;;;;;9.53;8.77;;;7.80;93.20;;;;;;10492965;28;20224;-85
2021/04/18 05:58:44;;;;;;;9.30;8.40;;;7.90;93.20;;;;;;10496015;28;20196;-85
2021/04/18 06:03:45;;;;;;;10.20;9.30;;;7.90;92.80;;;;;;10505367;28;20307;-85
2021/04/18 06:08:47;;;;;;;9.73;8.77;;;8.00;92.60;;;;;;10488800;28;20215;-85
2021/04/18 06:13:50;;;;;;;9.43;8.70;;;8.00;92.40;;;;;;10490139;28;20232;-84
2021/04/18 06:18:52;;;;;;;9.83;9.03;;;8.00;92.40;;;;;;10492335;28;20204;-86
2021/04/18 06:23:54;;;;;;;10.40;9.60;;;8.10;92.70;;;;;;10492035;28;20228;-86
2021/04/18 06:28:56;;;;;;;9.97;9.17;;;8.20;92.80;;;;;;10491906;28;20205;-84
2021/04/18 06:33:58;;;;;;;10.37;9.57;;;8.30;92.60;;;;;;10484973;28;20288;-85
2021/04/18 06:38:59;;;;;;;10.40;9.57;;;8.30;92.40;;;;;;10487959;28;20683;-85
2021/04/18 06:44:03;;;;;;;10.20;9.40;;;8.40;91.90;;;;;;10487296;28;20783;-85
2021/04/18 06:49:05;;;;;;;10.57;9.73;;;8.60;91.70;;;;;;10484329;28;20683;-83
2021/04/18 06:54:07;;;;;;;10.90;9.90;;;8.60;91.00;;;;;;10505786;28;20221;-84
2021/04/18 06:59:09;;;;;;;10.90;10.00;;;8.60;90.30;;;;;;10484250;28;20196;-85
2021/04/18 07:04:13;;;;;;;11.60;10.47;;;8.60;90.90;;;;;;10485933;28;20235;-85
2021/04/18 07:09:19;;;;;;;11.53;10.57;;;8.70;90.90;;;;;;10487051;28;20204;-85
2021/04/18 07:14:25;;;;;;;10.87;9.97;;;8.80;90.80;;;;;;10484900;28;20231;-84
2021/04/18 07:19:32;;;;;;;11.17;10.20;;;9.00;90.80;;;;;;10478165;28;20697;-84
2021/04/18 07:24:47;;;;;;;10.30;9.50;;;9.10;90.90;;;;;;10485678;28;20233;-85
2021/04/18 07:29:57;;;;;;;11.30;10.20;;;9.30;90.30;;;;;;10479325;28;20196;-84
2021/04/18 07:35:00;;;;;;;9.90;9.10;;;9.50;89.80;;;;;;10487210;28;20696;-85
2021/04/18 07:40:05;;;;;;;10.50;9.50;;;9.60;88.70;;;;;;10484911;28;20719;-87
2021/04/18 07:45:10;;;;;;;11.07;10.00;;;9.70;87.50;;;;;;10502226;28;20197;-85
2021/04/18 07:51:01;;;;;;;11.17;10.27;;;9.60;88.60;;;;;;10491566;28;20575;-86
2021/04/18 07:56:17;;;;;;;10.83;9.73;;;9.70;87.80;;;;;;10492954;28;20204;-84
2021/04/18 08:01:20;;;;;;;10.10;9.20;;;9.70;88.20;;;;;;10475596;28;20310;-84
2021/04/18 08:06:25;;;;;;;9.17;8.37;;;9.80;86.70;;;;;;10482016;28;20227;-84
2021/04/18 08:11:27;;;;;;;9.03;8.23;;;9.80;86.30;;;;;;10482753;28;20228;-84
2021/04/18 08:16:32;;;;;;;9.90;8.57;;;9.80;84.60;;;;;;10481736;28;20208;-83
2021/04/18 08:21:37;;;;;;;8.50;7.67;;;9.80;86.40;;;;;;10475222;28;20224;-85
2021/04/18 08:26:39;;;;;;;9.60;8.60;;;9.80;86.20;;;;;;10481707;28;20234;-85
2021/04/18 08:31:59;;;;;;;8.80;7.90;;;9.90;85.50;;;;;;10495939;28;20244;-83
2021/04/18 08:37:03;;;;;;;9.03;8.13;;;10.00;82.90;;;;;;10496505;28;20200;-84
2021/04/18 08:42:07;;;;;;;8.70;7.80;;;10.00;82.80;;;;;;10479748;28;20232;-84
2021/04/18 08:47:19;;;;;;;7.83;6.27;;;10.10;82.40;;;;;;10488993;28;20219;-87
2021/04/18 08:52:22;;;;;;;7.20;6.00;;;10.10;79.60;;;;;;10484898;28;20227;-85
2021/04/18 08:57:27;;;;;;;7.17;6.03;;;10.20;80.10;;;;;;10497313;28;20207;-83
2021/04/18 09:02:32;;;;;;;6.80;5.80;;;10.40;80.80;;;;;;10498186;28;20231;-83
2021/04/18 09:07:48;;;;;;;7.50;6.77;;;10.50;80.60;;;;;;10595672;27;20548;-86
2021/04/18 09:12:50;;;;;;;7.17;6.57;;;10.70;79.60;;;;;;10567508;28;20343;-84
2021/04/18 09:17:52;;;;;;;7.70;7.10;;;10.90;77.80;;;;;;10567648;28;20214;-85
2021/04/18 09:23:04;;;;;;;7.07;6.50;;;11.10;77.00;;;;;;10567025;28;20219;-85
2021/04/18 09:28:12;;;;;;;8.27;7.43;;;11.20;77.20;;;;;;10566583;28;20199;-85
2021/04/18 09:33:15;;;;;;;10.40;7.60;;;11.30;76.90;;;;;;10566837;28;20215;-85
2021/04/18 09:38:20;;;;;;;8.10;7.30;;;11.40;76.50;;;;;;10572566;28;20233;-85
2021/04/18 09:43:23;;;;;;;8.43;7.60;;;11.50;76.10;;;;;;10579556;28;20688;-84
2021/04/18 09:48:25;;;;;;;8.30;7.60;;;11.60;74.80;;;;;;10574947;28;20229;-84
2021/04/18 09:53:32;;;;;;;7.97;7.20;;;11.60;74.90;;;;;;10554948;28;20291;-85
2021/04/18 09:58:39;;;;;;;8.80;6.97;;;11.60;75.10;;;;;;10580716;28;20195;-84
2021/04/18 10:03:44;;;;;;;8.63;7.83;;;11.70;75.80;;;;;;10550468;28;20226;-85
2021/04/18 10:08:58;;;;;;;8.93;8.13;;;11.90;74.70;;;;;;10575019;28;20211;-86
2021/04/18 10:14:01;;;;;;;9.00;7.77;;;12.20;74.90;;;;;;10591406;28;20215;-86
2021/04/18 10:19:19;;;;;;;7.77;6.60;;;12.40;72.90;;;;;;10543990;28;20206;-85
2021/04/18 10:24:33;;;;;;;6.67;6.07;;;12.40;73.00;;;;;;10535011;28;20303;-85
2021/04/18 10:29:38;;;;;;;7.57;6.07;;;12.60;71.40;;;;;;10556058;28;20695;-86
2021/04/18 10:34:40;;;;;;;8.73;7.83;;;12.90;71.30;;;;;;10530157;28;20219;-84
2021/04/18 10:39:49;;;;;;;8.77;7.90;;;13.20;68.70;;;;;;10541978;28;20218;-82
2021/04/18 10:44:51;;;;;;;7.53;6.93;;;13.30;67.50;;;;;;10535195;28;20227;-84
2021/04/18 10:49:53;;;;;;;9.60;8.70;;;13.40;69.70;;;;;;10524339;28;20238;-84
2021/04/18 10:54:56;;;;;;;8.23;7.53;;;13.50;68.00;;;;;;10552615;28;20611;-84
2021/04/18 10:59:57;;;;;;;8.20;7.50;;;13.60;67.30;;;;;;10537793;28;20234;-84
2021/04/18 11:04:59;;;;;;;9.30;8.07;;;13.60;67.00;;;;;;10530553;28;20314;-83
2021/04/18 11:10:02;;;;;;;11.27;7.90;;;13.70;66.60;;;;;;10519596;28;20227;-85
2021/04/18 11:15:07;;;;;;;7.93;7.23;;;13.80;65.70;;;;;;10521445;28;20215;-84
2021/04/18 11:20:13;;;;;;;8.13;7.40;;;13.80;65.80;;;;;;10539119;28;20646;-85
2021/04/18 11:25:16;;;;;;;8.17;7.43;;;13.90;66.00;;;;;;10542787;28;20220;-85
2021/04/18 11:30:19;;;;;;;8.57;7.77;;;13.90;62.90;;;;;;10518580;28;20238;-84
2021/04/18 11:35:25;;;;;;;7.93;7.23;;;13.60;63.60;;;;;;10551373;28;20204;-85
2021/04/18 11:40:29;;;;;;;9.57;8.67;;;13.40;64.20;;;;;;10549515;28;20232;-85
2021/04/18 11:45:32;;;;;;;8.67;7.87;;;13.40;66.20;;;;;;10536443;28;20228;-85
2021/04/18 11:50:34;;;;;;;8.30;7.10;;;13.40;64.60;;;;;;10531583;28;20285;-84
2021/04/18 11:55:37;;;;;;;7.73;6.93;;;13.30;65.00;;;;;;10536193;28;20210;-84
2021/04/18 12:00:39;;;;;;;7.80;7.00;;;13.20;65.30;;;;;;10546732;28;20723;-85
2021/04/18 12:05:41;;;;;;;7.27;6.67;;;13.10;66.40;;;;;;10551004;28;20222;-85
2021/04/18 12:10:44;;;;;;;8.07;7.37;;;13.00;66.30;;;;;;10536887;28;20285;-85
2021/04/18 12:15:46;;;;;;;8.17;7.37;;;12.90;66.70;;;;;;10509345;28;20208;-84
2021/04/18 12:20:57;;;;;;;8.23;7.43;;;12.90;64.90;;;;;;10522247;28;20269;-84
2021/04/18 12:25:59;;;;;;;7.70;7.10;;;12.70;66.00;;;;;;10520476;28;20228;-83
2021/04/18 12:31:01;;;;;;;7.73;7.10;;;12.80;68.00;;;;;;10513189;28;20703;-83
2021/04/18 12:36:05;;;;;;;8.07;7.37;;;12.90;66.00;;;;;;10541096;28;20196;-83
2021/04/18 12:41:13;;;;;;;7.40;6.80;;;13.10;67.10;;;;;;10536441;28;20223;-84
2021/04/18 12:46:20;;;;;;;8.90;8.10;;;13.40;68.90;;;;;;10520503;28;20304;-84
2021/04/18 12:51:34;;;;;;;8.10;7.40;;;13.50;68.00;;;;;;10536259;28;20215;-85
2021/04/18 12:56:54;;;;;;;9.13;8.07;;;13.60;65.50;;;;;;10565221;28;20286;-85
2021/04/18 13:01:57;;;;;;;9.00;8.20;;;13.60;66.40;;;;;;10535406;28;20272;-85
2021/04/18 13:07:02;;;;;;;7.73;7.10;;;13.50;64.60;;;;;;10531722;28;20216;-85
2021/04/18 13:12:06;;;;;;;7.00;6.50;;;13.40;64.70;;;;;;10561792;28;20219;-85
2021/04/18 13:17:08;;;;;;;8.50;7.70;;;13.30;67.10;;;;;;10551797;28;20271;-85
2021/04/18 13:22:10;;;;;;;7.53;6.80;;;13.40;67.00;;;;;;10537230;28;20243;-85
2021/04/18 13:27:13;;;;;;;7.60;7.00;;;13.50;64.90;;;;;;10554369;28;20220;-85
2021/04/18 13:32:17;;;;;;;7.70;7.10;;;13.60;67.00;;;;;;10548956;28;20486;-84
2021/04/18 13:37:21;;;;;;;7.60;6.90;;;13.60;65.50;;;;;;10522179;28;20204;-84
2021/04/18 13:42:26;;;;;;;8.03;7.23;;;13.50;64.30;;;;;;10540718;28;20332;-85
2021/04/18 13:47:28;;;;;;;7.70;7.10;;;13.30;63.00;;;;;;10546974;28;20224;-85
2021/04/18 13:52:31;;;;;;;8.53;7.83;;;13.00;64.10;;;;;;10531699;28;20228;-85
2021/04/18 13:57:34;;;;;;;8.10;7.30;;;13.00;66.30;;;;;;10550960;28;20199;-84
2021/04/18 14:02:46;;;;;;;8.90;7.20;;;13.00;68.20;;;;;;10551969;28;20219;-83
2021/04/18 14:07:49;;;;;;;7.27;6.53;;;13.00;67.70;;;;;;10547623;28;20216;-85
2021/04/18 14:12:51;;;;;;;7.60;6.90;;;13.10;67.00;;;;;;10529817;28;20238;-84
2021/04/18 14:17:57;;;;;;;6.80;6.10;;;13.10;64.00;;;;;;10540217;28;20234;-85
2021/04/18 14:23:13;;;;;;;8.20;7.43;;;13.00;67.00;;;;;;10545071;28;20232;-86
2021/04/18 14:28:16;;;;;;;8.60;7.70;;;13.00;64.70;;;;;;10533820;28;20223;-84
2021/04/18 14:33:19;;;;;;;7.93;7.30;;;12.90;65.30;;;;;;10546474;28;20303;-84
2021/04/18 14:38:21;;;;;;;8.50;7.60;;;12.80;65.40;;;;;;10546109;28;20199;-82
2021/04/18 14:43:24;;;;;;;8.53;7.83;;;12.90;66.10;;;;;;10527733;28;20845;-81
2021/04/18 14:48:26;;;;;;;8.60;7.80;;;13.00;65.60;;;;;;10545468;28;20275;-81
2021/04/18 14:53:27;;;;;;;10.20;8.07;;;13.00;66.40;;;;;;10544133;28;20231;-82
2021/04/18 14:58:30;;;;;;;8.40;7.70;;;13.20;67.60;;;;;;10524974;28;20212;-80
2021/04/18 15:03:33;;;;;;;7.53;6.83;;;13.30;65.50;;;;;;10518748;28;20319;-80
2021/04/18 15:08:34;;;;;;;8.50;7.73;;;13.40;67.80;;;;;;10519039;28;20207;-80
2021/04/18 15:13:37;;;;;;;8.17;7.37;;;13.50;66.40;;;;;;10490421;23;20271;-79
2021/04/18 15:18:49;;;;;;;8.83;7.90;;;13.40;66.30;;;;;;10429091;28;20201;-78
2021/04/18 15:23:52;;;;;;;9.43;8.53;;;13.30;67.10;;;;;;10407611;28;20217;-78
2021/04/18 15:28:57;;;;;;;9.10;8.20;;;13.30;68.70;;;;;;10412459;28;20198;-78
2021/04/18 15:33:59;;;;;;;9.00;8.10;;;13.20;67.90;;;;;;10412328;28;20221;-79
2021/04/18 15:39:01;;;;;;;8.03;7.33;;;13.10;69.00;;;;;;10414050;28;20607;-79
2021/04/18 15:44:05;;;;;;;9.17;8.33;;;13.00;68.80;;;;;;10412221;28;20740;-79
2021/04/18 15:49:07;;;;;;;8.23;7.10;;;12.90;69.40;;;;;;10412747;28;20597;-78
2021/04/18 15:54:10;;;;;;;8.00;7.30;;;12.80;68.30;;;;;;10414481;28;20608;-78
2021/04/18 15:59:13;;;;;;;9.40;8.50;;;12.70;68.90;;;;;;10412272;28;20320;-78
2021/04/18 16:04:16;;;;;;;8.47;7.77;;;12.70;69.10;;;;;;10412388;28;20335;-78
2021/04/18 16:09:17;;;;;;;9.93;8.97;;;12.60;68.30;;;;;;10414981;28;20309;-78
2021/04/18 16:14:21;;;;;;;10.43;8.37;;;12.60;71.10;;;;;;10418636;28;20233;-78
2021/04/18 16:19:23;;;;;;;8.73;7.93;;;12.60;69.10;;;;;;10413361;28;20198;-79
2021/04/18 16:24:25;;;;;;;9.63;8.70;;;12.60;70.70;;;;;;10414814;28;20288;-78
2021/04/18 16:29:31;;;;;;;8.90;8.10;;;12.60;69.30;;;;;;10403809;28;20202;-77
2021/04/18 16:34:33;;;;;;;8.97;8.17;;;12.50;70.20;;;;;;10405360;28;20226;-78
2021/04/18 16:39:34;;;;;;;10.47;9.47;;;12.40;70.50;;;;;;10409822;28;20336;-78
2021/04/18 16:44:37;;;;;;;10.60;9.50;;;12.30;71.60;;;;;;10410103;28;20681;-78
2021/04/18 16:49:39;;;;;;;9.77;8.77;;;12.20;71.70;;;;;;10393983;28;20198;-78
2021/04/18 16:54:42;;;;;;;9.47;8.37;;;12.20;73.90;;;;;;10411596;28;20267;-78
2021/04/18 16:59:44;;;;;;;12.43;10.20;;;12.10;72.60;;;;;;10410457;28;20210;-78
2021/04/18 17:04:46;;;;;;;10.90;9.90;;;12.10;71.30;;;;;;10403839;28;20230;-78
2021/04/18 17:09:48;;;;;;;10.37;9.30;;;12.10;72.20;;;;;;10409555;28;20212;-78
2021/04/18 17:14:51;;;;;;;10.80;9.33;;;12.00;72.70;;;;;;10410329;28;20233;-78
2021/04/18 17:19:53;;;;;;;9.23;8.33;;;12.10;73.30;;;;;;10410742;28;20201;-78
2021/04/18 17:24:54;;;;;;;9.60;8.60;;;12.00;73.10;;;;;;10409673;28;20264;-78
2021/04/18 17:30:01;;;;;;;11.00;9.90;;;12.00;73.90;;;;;;10412172;28;20668;-78
2021/04/18 17:35:03;;;;;;;10.57;9.53;;;12.00;74.60;;;;;;10415195;28;20654;-78
2021/04/18 17:40:10;;;;;;;10.70;9.53;;;12.00;74.10;;;;;;10418460;28;20288;-79
2021/04/18 17:45:15;;;;;;;10.63;9.63;;;11.90;75.30;;;;;;10411572;28;20210;-79
2021/04/18 17:50:19;;;;;;;12.03;10.47;;;11.90;76.10;;;;;;10416538;28;20260;-79
2021/04/18 17:55:23;;;;;;;9.30;8.40;;;11.90;76.40;;;;;;10424295;28;20317;-78
2021/04/18 18:00:27;;;;;;;11.73;10.60;;;11.80;76.50;;;;;;10405553;28;20686;-78
2021/04/18 18:05:29;;;;;;;10.97;9.87;;;11.80;76.00;;;;;;10408822;28;20615;-79
2021/04/18 18:10:31;;;;;;;10.70;9.40;;;11.80;77.20;;;;;;10413527;28;20233;-78
2021/04/18 18:15:34;;;;;;;13.50;12.00;;;11.80;76.30;;;;;;10408328;28;20202;-78
2021/04/18 18:20:37;;;;;;;12.90;11.50;;;11.70;76.90;;;;;;10410178;28;20217;-78
2021/04/18 18:25:40;;;;;;;11.80;10.40;;;11.70;77.20;;;;;;10408449;28;20214;-78
2021/04/18 18:30:43;;;;;;;10.23;9.17;;;11.70;76.80;;;;;;10402355;28;20317;-78
2021/04/18 18:35:45;;;;;;;12.80;11.37;;;11.60;76.20;;;;;;10410440;28;20234;-79
2021/04/18 18:40:46;;;;;;;11.63;10.53;;;11.60;76.30;;;;;;10404429;28;20800;-79
2021/04/18 18:45:53;;;;;;;12.00;10.67;;;11.60;77.10;;;;;;10390468;28;20222;-79
2021/04/18 18:51:08;;;;;;;11.93;10.70;;;11.50;77.40;;;;;;10410054;28;20619;-78
2021/04/18 18:56:13;;;;;;;12.80;10.57;;;11.50;77.20;;;;;;10407359;28;20224;-78
2021/04/18 19:01:20;;;;;;;10.33;9.17;;;11.40;76.90;;;;;;10399357;28;20610;-79
2021/04/18 19:06:26;;;;;;;10.70;9.70;;;11.30;77.80;;;;;;10406504;28;20221;-78
2021/04/18 19:11:30;;;;;;;9.60;8.70;;;11.20;78.00;;;;;;10405810;28;20577;-78
2021/04/18 19:16:34;;;;;;;10.53;9.37;;;11.20;78.50;;;;;;10379237;28;20206;-78
2021/04/18 19:21:39;;;;;;;10.47;9.47;;;11.10;78.20;;;;;;10399218;28;20229;-78
2021/04/18 19:26:41;;;;;;;9.67;8.70;;;11.10;78.80;;;;;;10386471;28;20246;-79
2021/04/18 19:31:43;;;;;;;9.13;8.23;;;10.90;79.10;;;;;;10403907;28;20238;-79
2021/04/18 19:36:55;;;;;;;9.63;8.60;;;10.80;79.10;;;;;;10407951;28;20217;-78
2021/04/18 19:41:57;;;;;;;9.50;8.60;;;10.70;79.80;;;;;;10401098;28;20720;-79
2021/04/18 19:47:00;;;;;;;10.20;8.87;;;10.60;80.10;;;;;;10403829;28;20217;-79
2021/04/18 19:52:02;;;;;;;10.33;9.33;;;10.60;80.70;;;;;;10402003;28;20229;-78
2021/04/18 19:57:04;;;;;;;10.50;8.53;;;10.50;80.80;;;;;;10404905;28;20260;-78
2021/04/18 20:02:08;;;;;;;10.83;9.20;;;10.40;81.00;;;;;;10405274;28;20287;-78
2021/04/18 20:07:10;;;;;;;10.33;9.30;;;10.40;80.80;;;;;;10398874;28;20222;-78
2021/04/18 20:12:12;;;;;;;10.47;9.47;;;10.40;80.50;;;;;;10407347;28;20311;-78
2021/04/18 20:17:16;;;;;;;9.67;8.70;;;10.30;80.50;;;;;;10398705;28;20213;-78
2021/04/18 20:22:19;;;;;;;10.37;9.37;;;10.30;80.70;;;;;;10406163;28;20230;-78
2021/04/18 20:27:20;;;;;;;10.20;9.00;;;10.20;81.00;;;;;;10406838;28;20222;-78
2021/04/18 20:32:25;;;;;;;9.97;8.97;;;10.20;81.60;;;;;;10407040;28;20229;-78
2021/04/18 20:37:27;;;;;;;12.30;10.40;;;10.20;82.90;;;;;;10423610;28;20225;-77
2021/04/18 20:42:28;;;;;;;12.10;10.90;;;10.20;82.90;;;;;;10400061;28;20218;-78
2021/04/18 20:47:34;;;;;;;13.80;12.10;;;10.20;82.80;;;;;;10404182;28;20295;-78
2021/04/18 20:52:35;;;;;;;12.60;11.37;;;10.20;82.90;;;;;;10399644;28;20304;-78
2021/04/18 20:57:37;;;;;;;12.60;11.30;;;10.20;83.30;;;;;;10404097;28;20213;-78
2021/04/18 21:02:41;;;;;;;12.00;10.87;;;10.20;83.60;;;;;;10405662;28;20234;-78
2021/04/18 21:07:43;;;;;;;15.33;13.17;;;10.20;83.90;;;;;;10404540;28;20715;-78
2021/04/18 21:12:46;;;;;;;13.53;12.20;;;10.20;83.90;;;;;;10438831;22;20220;-79
2021/04/18 21:17:49;;;;;;;12.03;10.80;;;10.20;84.00;;;;;;10444018;28;20197;-82
2021/04/18 21:22:50;;;;;;;14.93;13.43;;;10.20;84.00;;;;;;10485463;28;20247;-81
2021/04/18 21:27:54;;;;;;;12.43;11.13;;;10.20;84.50;;;;;;10494500;28;20208;-80
2021/04/18 21:32:56;;;;;;;14.20;11.60;;;10.20;84.70;;;;;;10481391;28;20270;-81
2021/04/18 21:37:58;;;;;;;12.50;10.83;;;10.20;84.90;;;;;;10495817;28;20680;-81
2021/04/18 21:43:00;;;;;;;11.10;10.00;;;10.20;85.00;;;;;;10480574;28;20228;-79
2021/04/18 21:48:04;;;;;;;10.50;9.47;;;10.20;84.90;;;;;;10481608;28;20212;-80
2021/04/18 21:53:06;;;;;;;11.27;10.07;;;10.20;85.00;;;;;;10471070;28;20303;-81
2021/04/18 21:58:07;;;;;;;12.40;11.20;;;10.10;85.20;;;;;;10490105;28;20201;-82
2021/04/18 22:03:11;;;;;;;11.80;10.70;;;10.10;85.00;;;;;;10467280;28;20228;-81
2021/04/18 22:08:13;;;;;;;11.83;10.60;;;10.10;85.00;;;;;;10486788;28;20670;-80
2021/04/18 22:13:14;;;;;;;12.13;10.50;;;10.10;85.40;;;;;;10465594;28;20243;-80
2021/04/18 22:18:17;;;;;;;11.10;10.10;;;10.10;85.00;;;;;;10483935;28;20204;-80
2021/04/18 22:23:19;;;;;;;11.90;10.70;;;10.10;84.80;;;;;;10489780;28;20224;-80
2021/04/18 22:28:21;;;;;;;10.80;9.80;;;10.10;84.90;;;;;;10475514;28;20302;-80
2021/04/18 22:33:23;;;;;;;11.60;10.23;;;10.10;85.10;;;;;;10493884;28;20299;-80
2021/04/18 22:38:25;;;;;;;13.33;11.93;;;10.10;85.40;;;;;;10461123;28;20305;-80
2021/04/18 22:43:26;;;;;;;12.60;11.37;;;10.10;85.20;;;;;;10481267;28;20224;-80
2021/04/18 22:48:29;;;;;;;12.70;11.47;;;10.10;85.70;;;;;;10463867;28;20319;-81
2021/04/18 22:53:31;;;;;;;11.60;10.43;;;10.10;85.90;;;;;;10466907;28;20326;-80
2021/04/18 22:58:32;;;;;;;12.77;11.47;;;10.10;85.90;;;;;;10468679;28;20283;-80
2021/04/18 23:03:35;;;;;;;11.00;9.90;;;10.20;87.00;;;;;;10473832;28;20258;-80
2021/04/18 23:08:36;;;;;;;13.13;11.60;;;10.10;86.50;;;;;;10456806;28;20291;-81
2021/04/18 23:13:38;;;;;;;13.47;12.07;;;10.10;86.80;;;;;;10490587;28;20220;-80
2021/04/18 23:18:40;;;;;;;13.20;11.87;;;10.10;86.70;;;;;;10487938;28;20918;-80
2021/04/18 23:23:42;;;;;;;12.30;11.10;;;10.00;86.60;;;;;;10495954;28;20615;-80
2021/04/18 23:28:44;;;;;;;14.53;12.00;;;10.00;86.50;;;;;;10488167;28;20224;-80
2021/04/18 23:33:46;;;;;;;13.23;11.90;;;10.00;86.60;;;;;;10486008;28;20244;-80
2021/04/18 23:38:48;;;;;;;13.60;12.23;;;9.90;87.70;;;;;;10472031;28;20287;-80
2021/04/18 23:43:49;;;;;;;14.70;12.30;;;9.90;87.70;;;;;;10451792;28;20255;-80
2021/04/18 23:48:52;;;;;;;15.33;13.73;;;9.90;88.10;;;;;;10484763;28;20244;-80
2021/04/18 23:53:54;;;;;;;14.70;13.27;;;9.90;88.40;;;;;;10476738;28;20251;-80
2021/04/18 23:58:56;;;;;;;15.33;13.77;;;9.80;88.10;;;;;;10506032;28;20289;-80
